Time;durP1;ratioP1;P1;durP2;ratioP2;P2;SDS_P1;SDS_P2;PMS_P1;PMS_P2;Temp;Humidity;BMP_temperature;BMP_pressure;BME280_temperature;BME280_humidity;BME280_pressure;Samples;Min_cycle;Max_cycle;Signal;HPM_P1;HPM_P2
2023/12/09 00:01:58;;;;;;;32.90;11.45;;;8.20;92.50;;;;;;5084921;28;20803;-91
2023/12/09 00:04:26;;;;;;;34.55;11.30;;;8.30;92.50;;;;;;5068101;28;20060;-90
2023/12/09 00:06:53;;;;;;;32.78;11.45;;;8.20;92.40;;;;;;5051090;28;20635;-91
2023/12/09 00:09:21;;;;;;;34.05;12.15;;;8.20;92.40;;;;;;5050996;28;20585;-92
2023/12/09 00:11:48;;;;;;;37.90;12.87;;;8.20;92.50;;;;;;5084617;28;20049;-90
2023/12/09 00:14:15;;;;;;;38.92;11.98;;;8.30;92.50;;;;;;5050761;28;20310;-90
2023/12/09 00:16:42;;;;;;;28.65;11.60;;;8.30;92.40;;;;;;5051252;28;20608;-91
2023/12/09 00:19:12;;;;;;;30.52;12.45;;;8.30;92.40;;;;;;5067620;28;20060;-90
2023/12/09 00:21:41;;;;;;;33.88;11.00;;;8.30;92.40;;;;;;5067949;28;20148;-89
2023/12/09 00:24:08;;;;;;;30.53;10.67;;;8.30;92.30;;;;;;5067607;28;20131;-90
2023/12/09 00:26:35;;;;;;;37.13;12.35;;;8.20;92.40;;;;;;5050407;28;20754;-90
2023/12/09 00:29:02;;;;;;;30.90;11.65;;;8.30;92.40;;;;;;5066945;28;20048;-90
2023/12/09 00:31:29;;;;;;;29.38;12.07;;;8.30;92.40;;;;;;5067359;28;20049;-90
2023/12/09 00:33:56;;;;;;;29.60;11.07;;;8.30;92.40;;;;;;5067507;28;20053;-90
2023/12/09 00:36:23;;;;;;;36.80;11.27;;;8.30;92.40;;;;;;5050739;28;20174;-91
2023/12/09 00:38:52;;;;;;;34.63;11.23;;;8.30;92.40;;;;;;5050923;28;20290;-91
2023/12/09 00:41:19;;;;;;;29.17;10.82;;;8.30;92.40;;;;;;5067619;28;20060;-92
2023/12/09 00:43:46;;;;;;;30.33;11.88;;;8.30;92.30;;;;;;5067626;28;20132;-91
2023/12/09 00:46:14;;;;;;;33.25;12.32;;;8.30;92.40;;;;;;5084033;28;20053;-90
2023/12/09 00:48:41;;;;;;;33.60;11.33;;;8.30;92.30;;;;;;5066969;28;20061;-90
2023/12/09 00:51:09;;;;;;;32.33;11.02;;;8.30;92.30;;;;;;5084261;28;20258;-90
2023/12/09 00:53:36;;;;;;;30.20;11.43;;;8.30;92.20;;;;;;5069951;28;20518;-90
2023/12/09 00:56:05;;;;;;;29.90;11.93;;;8.30;92.20;;;;;;5087366;28;20053;-90
2023/12/09 00:58:32;;;;;;;33.15;11.93;;;8.30;92.20;;;;;;5071375;28;20573;-90
2023/12/09 01:00:59;;;;;;;28.93;11.00;;;8.30;92.20;;;;;;5070189;28;20128;-90
2023/12/09 01:03:26;;;;;;;33.78;12.25;;;8.40;92.20;;;;;;5070541;28;20256;-90
2023/12/09 01:05:53;;;;;;;31.65;11.65;;;8.30;92.10;;;;;;5053283;28;20052;-91
2023/12/09 01:08:20;;;;;;;35.30;12.23;;;8.40;92.10;;;;;;5070082;28;20131;-91
2023/12/09 01:10:46;;;;;;;32.13;10.80;;;8.30;92.00;;;;;;5053283;28;20477;-91
2023/12/09 01:13:15;;;;;;;37.33;11.53;;;8.40;92.00;;;;;;5070108;28;20416;-91
2023/12/09 01:15:42;;;;;;;31.00;11.57;;;8.40;91.90;;;;;;5070144;28;20765;-91
2023/12/09 01:18:09;;;;;;;28.83;10.23;;;8.40;91.90;;;;;;5087117;28;20579;-91
2023/12/09 01:20:38;;;;;;;36.28;11.40;;;8.40;91.80;;;;;;5054003;28;20581;-90
2023/12/09 01:23:05;;;;;;;31.05;11.70;;;8.40;91.70;;;;;;5070678;28;20123;-90
2023/12/09 01:25:33;;;;;;;26.57;10.17;;;8.40;91.70;;;;;;5087841;28;20069;-91
2023/12/09 01:28:01;;;;;;;32.15;11.38;;;8.40;91.60;;;;;;5053038;28;20315;-91
2023/12/09 01:30:30;;;;;;;29.02;10.90;;;8.40;91.60;;;;;;5086465;28;20049;-91
2023/12/09 01:32:57;;;;;;;29.52;11.50;;;8.40;91.50;;;;;;5069739;28;20056;-92
2023/12/09 01:35:24;;;;;;;27.35;11.60;;;8.40;91.60;;;;;;5068703;28;20048;-92
2023/12/09 01:37:51;;;;;;;30.63;11.00;;;8.40;91.60;;;;;;5051792;28;20526;-91
2023/12/09 01:40:18;;;;;;;29.13;10.75;;;8.40;91.60;;;;;;5085883;28;20310;-91
2023/12/09 01:42:45;;;;;;;35.20;11.32;;;8.40;91.60;;;;;;5068286;28;20056;-91
2023/12/09 01:45:12;;;;;;;28.75;11.00;;;8.40;91.50;;;;;;5068746;28;20053;-90
2023/12/09 01:47:42;;;;;;;30.55;10.23;;;8.40;91.50;;;;;;5085165;28;20061;-90
2023/12/09 01:50:10;;;;;;;32.60;11.60;;;8.40;91.50;;;;;;5087040;28;20040;-91
2023/12/09 01:52:37;;;;;;;30.13;10.43;;;8.40;91.50;;;;;;5087047;28;20296;-90
2023/12/09 01:55:05;;;;;;;34.08;11.57;;;8.40;91.50;;;;;;5069316;28;20053;-90
2023/12/09 01:57:32;;;;;;;29.52;10.52;;;8.40;91.50;;;;;;5086260;28;20136;-92
2023/12/09 01:59:59;;;;;;;28.67;10.75;;;8.40;91.40;;;;;;5086928;28;20151;-92
2023/12/09 02:02:26;;;;;;;29.10;11.23;;;8.40;91.50;;;;;;5082955;28;20140;-91
2023/12/09 02:05:03;;;;;;;29.83;12.13;;;8.40;91.50;;;;;;5054500;28;20268;-91
2023/12/09 02:07:30;;;;;;;29.83;10.60;;;8.40;91.50;;;;;;5069797;28;20084;-92
2023/12/09 02:09:57;;;;;;;29.58;10.57;;;8.40;91.40;;;;;;5053044;28;20060;-91
2023/12/09 02:12:32;;;;;;;31.83;10.50;;;8.40;91.30;;;;;;5053325;28;20045;-91
2023/12/09 02:15:06;;;;;;;28.43;10.70;;;8.40;91.30;;;;;;5069295;28;20136;-91
2023/12/09 02:17:37;;;;;;;27.95;10.23;;;8.40;91.20;;;;;;5069464;28;20291;-91
2023/12/09 02:20:12;;;;;;;29.38;11.30;;;8.40;91.20;;;;;;5052453;28;20053;-91
2023/12/09 02:22:39;;;;;;;34.88;12.52;;;8.40;91.10;;;;;;5069891;28;20053;-91
2023/12/09 02:25:09;;;;;;;33.20;11.63;;;8.40;91.10;;;;;;5052454;28;20076;-91
2023/12/09 02:27:41;;;;;;;37.73;13.73;;;8.40;91.10;;;;;;5052876;28;20064;-90
2023/12/09 02:30:16;;;;;;;34.33;10.68;;;8.50;91.10;;;;;;5069449;28;20256;-91
2023/12/09 02:32:45;;;;;;;31.60;11.90;;;8.40;91.00;;;;;;5052330;28;20585;-91
2023/12/09 02:35:13;;;;;;;28.70;9.38;;;8.40;91.10;;;;;;5069094;28;20049;-91
2023/12/09 02:37:42;;;;;;;30.55;10.65;;;8.50;91.00;;;;;;5086379;28;20110;-91
2023/12/09 02:40:12;;;;;;;25.80;9.60;;;8.40;91.00;;;;;;5052247;28;20048;-91
2023/12/09 02:42:40;;;;;;;26.25;10.35;;;8.40;91.00;;;;;;5052534;28;20225;-90
2023/12/09 02:45:08;;;;;;;32.85;10.68;;;8.40;91.10;;;;;;5051805;28;20793;-90
2023/12/09 02:47:35;;;;;;;25.95;11.00;;;8.40;91.10;;;;;;5068803;28;20085;-90
2023/12/09 02:50:02;;;;;;;30.50;11.27;;;8.40;91.20;;;;;;5052094;28;20103;-90
2023/12/09 02:52:29;;;;;;;28.23;9.63;;;8.50;91.00;;;;;;5051981;28;20849;-90
2023/12/09 02:54:56;;;;;;;27.38;9.43;;;8.50;90.90;;;;;;5068263;28;20350;-90
2023/12/09 02:57:24;;;;;;;26.80;9.60;;;8.50;90.80;;;;;;5085859;28;20068;-91
2023/12/09 02:59:51;;;;;;;20.77;9.20;;;8.50;90.80;;;;;;5052102;28;20158;-91
2023/12/09 03:02:18;;;;;;;30.65;10.35;;;8.40;90.70;;;;;;5051753;28;20123;-91
2023/12/09 03:04:45;;;;;;;29.00;9.20;;;8.50;90.70;;;;;;5052271;28;20080;-91
2023/12/09 03:07:12;;;;;;;27.83;9.90;;;8.50;90.60;;;;;;5068812;28;20375;-91
2023/12/09 03:09:39;;;;;;;28.60;9.40;;;8.50;90.60;;;;;;5051679;28;20805;-91
2023/12/09 03:12:07;;;;;;;30.60;9.50;;;8.40;90.60;;;;;;5051980;28;20131;-91
2023/12/09 03:14:35;;;;;;;29.85;10.57;;;8.50;90.60;;;;;;5067378;28;20076;-90
2023/12/09 03:17:01;;;;;;;26.50;8.93;;;8.40;90.60;;;;;;5085113;28;20155;-90
2023/12/09 03:19:28;;;;;;;23.10;8.52;;;8.40;90.50;;;;;;5068716;28;20264;-91
2023/12/09 03:21:58;;;;;;;24.35;9.75;;;8.40;90.50;;;;;;5085708;28;20092;-91
2023/12/09 03:24:26;;;;;;;27.85;10.23;;;8.40;90.50;;;;;;5069178;28;20045;-91
2023/12/09 03:26:55;;;;;;;28.15;8.88;;;8.40;90.40;;;;;;5068919;28;20059;-91
2023/12/09 03:29:22;;;;;;;24.67;8.33;;;8.40;90.30;;;;;;5086031;28;20064;-91
2023/12/09 03:31:51;;;;;;;31.08;9.23;;;8.40;90.30;;;;;;5069957;28;20292;-91
2023/12/09 03:34:18;;;;;;;27.83;8.60;;;8.40;90.30;;;;;;5068319;28;20041;-91
2023/12/09 03:36:45;;;;;;;26.73;9.57;;;8.40;90.20;;;;;;5051879;28;20439;-91
2023/12/09 03:39:12;;;;;;;24.77;8.35;;;8.40;90.20;;;;;;5051588;28;20060;-90
2023/12/09 03:41:39;;;;;;;25.93;8.83;;;8.40;90.10;;;;;;5068611;28;20056;-91
2023/12/09 03:44:06;;;;;;;25.45;8.65;;;8.40;90.00;;;;;;5051896;28;20260;-91
2023/12/09 03:46:33;;;;;;;26.92;8.55;;;8.40;89.80;;;;;;5067887;28;20075;-90
2023/12/09 03:49:02;;;;;;;27.83;9.02;;;8.40;89.80;;;;;;5051497;28;20075;-91
2023/12/09 03:51:29;;;;;;;24.67;8.70;;;8.40;89.90;;;;;;5052104;28;20060;-91
2023/12/09 03:53:56;;;;;;;24.47;9.27;;;8.40;89.80;;;;;;5085116;28;20052;-90
2023/12/09 03:56:23;;;;;;;27.27;9.00;;;8.30;89.80;;;;;;5051250;28;20276;-92
2023/12/09 03:58:51;;;;;;;22.60;7.18;;;8.30;89.80;;;;;;5065401;28;20054;-91
2023/12/09 04:01:18;;;;;;;19.98;6.78;;;8.30;89.70;;;;;;5081908;28;20200;-92
2023/12/09 04:03:45;;;;;;;27.90;8.55;;;8.30;89.80;;;;;;5081917;28;20136;-91
2023/12/09 04:06:14;;;;;;;24.27;8.17;;;8.30;89.70;;;;;;5064938;28;20076;-92
2023/12/09 04:08:41;;;;;;;22.23;7.03;;;8.40;89.70;;;;;;5047781;28;20287;-91
2023/12/09 04:11:09;;;;;;;21.05;7.20;;;8.40;89.60;;;;;;5082116;28;20033;-91
2023/12/09 04:13:36;;;;;;;23.42;7.70;;;8.30;89.50;;;;;;5064626;28;20124;-91
2023/12/09 04:16:03;;;;;;;23.92;7.60;;;8.30;89.70;;;;;;5064529;28;20053;-91
2023/12/09 04:18:30;;;;;;;25.33;8.20;;;8.30;89.70;;;;;;5047881;28;20061;-91
2023/12/09 04:21:51;;;;;;;24.00;8.10;;;8.30;89.80;;;;;;5047942;28;20772;-90
2023/12/09 04:24:20;;;;;;;22.40;8.18;;;8.30;89.70;;;;;;5077261;28;20069;-91
2023/12/09 04:26:51;;;;;;;20.58;7.30;;;8.30;89.70;;;;;;5064200;28;20180;-90
2023/12/09 04:29:18;;;;;;;25.83;7.80;;;8.30;89.70;;;;;;5064169;28;20049;-91
2023/12/09 04:31:46;;;;;;;25.27;7.43;;;8.30;89.70;;;;;;5047156;28;20124;-91
2023/12/09 04:34:14;;;;;;;24.23;7.10;;;8.30;89.70;;;;;;5081154;28;20249;-92
2023/12/09 04:36:41;;;;;;;24.42;7.43;;;8.30;89.80;;;;;;5063847;28;20784;-91
2023/12/09 04:39:08;;;;;;;20.17;7.90;;;8.30;89.70;;;;;;5064539;28;20049;-90
2023/12/09 04:41:38;;;;;;;22.13;6.55;;;8.30;89.80;;;;;;5047430;28;20055;-91
2023/12/09 04:44:05;;;;;;;25.27;7.83;;;8.30;89.80;;;;;;5064156;28;20046;-91
2023/12/09 04:46:33;;;;;;;25.73;7.78;;;8.30;89.90;;;;;;5080960;28;20284;-91
2023/12/09 04:49:00;;;;;;;23.65;6.68;;;8.30;89.80;;;;;;5063827;28;20107;-90
2023/12/09 04:51:27;;;;;;;21.83;7.53;;;8.30;89.80;;;;;;5064196;28;20107;-90
2023/12/09 04:53:55;;;;;;;20.38;6.75;;;8.30;89.80;;;;;;5047210;28;20060;-91
2023/12/09 04:56:23;;;;;;;25.70;6.70;;;8.30;89.80;;;;;;5063373;28;20052;-91
2023/12/09 04:58:51;;;;;;;20.55;6.65;;;8.30;89.70;;;;;;5067152;28;20248;-90
2023/12/09 05:01:18;;;;;;;20.42;7.10;;;8.30;89.70;;;;;;5067249;28;20080;-90
2023/12/09 05:03:47;;;;;;;24.95;7.13;;;8.30;89.70;;;;;;5083950;28;20049;-91
2023/12/09 05:06:14;;;;;;;18.13;5.95;;;8.30;89.60;;;;;;5050043;28;20053;-90
2023/12/09 05:08:42;;;;;;;22.43;6.90;;;8.30;89.50;;;;;;5050468;28;20045;-90
2023/12/09 05:11:09;;;;;;;19.35;6.90;;;8.30;89.50;;;;;;5083755;28;20333;-89
2023/12/09 05:13:36;;;;;;;20.10;6.50;;;8.30;89.70;;;;;;5066658;28;20049;-90
2023/12/09 05:16:06;;;;;;;24.80;7.63;;;8.30;89.60;;;;;;5066209;28;20515;-91
2023/12/09 05:18:33;;;;;;;20.50;6.75;;;8.30;89.60;;;;;;5083760;28;20382;-91
2023/12/09 05:21:00;;;;;;;19.30;6.57;;;8.30;89.60;;;;;;5066862;28;20135;-89
2023/12/09 05:23:27;;;;;;;24.67;7.50;;;8.30;89.60;;;;;;5066864;28;20260;-90
2023/12/09 05:25:55;;;;;;;22.05;7.38;;;8.30;89.60;;;;;;5066676;28;20049;-91
2023/12/09 05:28:26;;;;;;;21.13;6.88;;;8.30;89.60;;;;;;5084183;28;20076;-92
2023/12/09 05:30:53;;;;;;;22.80;7.47;;;8.30;89.50;;;;;;5067137;28;20053;-91
2023/12/09 05:33:28;;;;;;;27.13;8.43;;;8.20;89.50;;;;;;5066482;28;20076;-91
2023/12/09 05:35:58;;;;;;;23.70;7.00;;;8.20;89.70;;;;;;5049720;28;20283;-90
2023/12/09 05:38:28;;;;;;;25.17;7.70;;;8.30;89.50;;;;;;5067593;28;20115;-91
2023/12/09 05:40:56;;;;;;;26.35;8.10;;;8.20;89.50;;;;;;5069065;28;20053;-92
2023/12/09 05:43:23;;;;;;;24.65;8.13;;;8.30;89.50;;;;;;5086002;28;20131;-91
2023/12/09 05:49:41;;;;;;;22.35;6.88;;;8.30;89.30;;;;;;5029081;28;20262;-92
2023/12/09 05:56:20;;;;;;;21.20;7.28;;;8.20;89.10;;;;;;5071279;28;20053;-92
2023/12/09 06:02:17;;;;;;;24.43;7.00;;;8.10;89.20;;;;;;5062688;28;20049;-91
2023/12/09 06:05:02;;;;;;;20.85;7.32;;;8.10;89.40;;;;;;5075918;28;20252;-91
2023/12/09 06:07:36;;;;;;;19.55;7.20;;;8.10;89.40;;;;;;5076192;28;20545;-91
2023/12/09 06:10:22;;;;;;;21.75;7.15;;;8.10;89.40;;;;;;5076883;28;20088;-92
2023/12/09 06:17:00;;;;;;;23.67;7.43;;;8.10;89.20;;;;;;5056055;28;20106;-92
2023/12/09 06:31:27;;;;;;;25.30;7.32;;;8.00;88.70;;;;;;5004565;28;20064;-92
2023/12/09 06:37:29;;;;;;;18.20;5.95;;;8.00;88.50;;;;;;4992662;28;20412;-93
2023/12/09 06:55:35;;;;;;;21.90;6.40;;;7.90;88.50;;;;;;4815553;29;20270;-90
2023/12/09 07:01:57;;;;;;;21.20;6.60;;;7.90;88.30;;;;;;4828880;29;20159;-90
2023/12/09 07:12:54;;;;;;;21.65;6.03;;;7.80;88.40;;;;;;4930309;29;20257;-91
2023/12/09 07:15:21;;;;;;;22.83;7.53;;;7.80;88.40;;;;;;4920097;29;20060;-90
2023/12/09 07:17:51;;;;;;;20.65;6.45;;;7.80;88.40;;;;;;5059422;28;20057;-89
2023/12/09 07:20:28;;;;;;;19.23;5.93;;;7.80;88.50;;;;;;5071768;28;20048;-89
2023/12/09 07:23:20;;;;;;;21.07;6.30;;;7.80;88.60;;;;;;5071181;28;20048;-90
2023/12/09 07:29:31;;;;;;;22.52;5.72;;;7.80;88.50;;;;;;5070031;28;20053;-87
2023/12/09 07:32:02;;;;;;;17.80;6.03;;;7.80;88.60;;;;;;5071485;28;20081;-88
2023/12/09 07:34:32;;;;;;;18.63;5.32;;;7.80;88.50;;;;;;5057764;28;20052;-89
2023/12/09 07:37:00;;;;;;;22.17;6.90;;;7.80;88.50;;;;;;5068324;28;20120;-88
2023/12/09 07:39:27;;;;;;;25.55;6.50;;;7.80;88.40;;;;;;5054561;28;20280;-88
2023/12/09 07:41:57;;;;;;;19.35;5.22;;;7.80;88.40;;;;;;5052488;28;20049;-89
2023/12/09 07:44:26;;;;;;;14.10;4.97;;;7.80;88.20;;;;;;5079371;28;20055;-87
2023/12/09 07:46:55;;;;;;;21.17;5.72;;;7.70;88.40;;;;;;5055090;28;20055;-89
2023/12/09 07:49:23;;;;;;;12.30;4.20;;;7.70;88.40;;;;;;5088553;28;20049;-89
2023/12/09 07:51:51;;;;;;;15.35;4.43;;;7.80;88.30;;;;;;5052672;28;20244;-89
2023/12/09 07:54:18;;;;;;;22.05;5.57;;;7.70;88.30;;;;;;5070969;28;20053;-89
2023/12/09 07:56:46;;;;;;;18.27;4.90;;;7.60;88.40;;;;;;5061816;28;21336;-90
2023/12/09 07:59:14;;;;;;;12.45;3.42;;;7.60;88.50;;;;;;5052434;28;20053;-88
2023/12/09 08:01:42;;;;;;;15.93;4.33;;;7.60;88.50;;;;;;5067640;28;20049;-88
2023/12/09 08:04:11;;;;;;;22.65;4.70;;;7.60;88.50;;;;;;5088553;28;20350;-89
2023/12/09 08:06:38;;;;;;;12.40;3.75;;;7.60;88.60;;;;;;5071707;28;20056;-88
2023/12/09 08:09:09;;;;;;;17.25;4.75;;;7.60;88.30;;;;;;5069685;28;20860;-87
2023/12/09 08:11:36;;;;;;;13.73;3.97;;;7.60;88.30;;;;;;5070869;28;20044;-87
2023/12/09 08:14:03;;;;;;;10.33;2.90;;;7.60;88.20;;;;;;5082087;28;20053;-86
2023/12/09 08:16:31;;;;;;;14.48;3.80;;;7.50;88.30;;;;;;5066318;28;20260;-86
2023/12/09 08:19:00;;;;;;;13.70;3.72;;;7.50;88.40;;;;;;5065821;28;20056;-87
2023/12/09 08:21:28;;;;;;;15.25;3.60;;;7.50;88.30;;;;;;5081277;28;20056;-88
2023/12/09 08:23:55;;;;;;;14.10;4.03;;;7.50;88.20;;;;;;5064323;28;20069;-85
2023/12/09 08:26:23;;;;;;;7.50;3.03;;;7.50;88.20;;;;;;5064043;28;20145;-86
2023/12/09 08:28:50;;;;;;;16.70;4.53;;;7.50;88.10;;;;;;5060131;28;20703;-84
2023/12/09 08:31:19;;;;;;;15.38;3.50;;;7.50;88.00;;;;;;5070915;28;20049;-92
2023/12/09 08:33:47;;;;;;;13.85;3.22;;;7.50;88.00;;;;;;5072901;28;20045;-90
2023/12/09 08:36:40;;;;;;;14.73;3.40;;;7.50;88.00;;;;;;5103424;28;20607;-90
2023/12/09 08:39:10;;;;;;;14.90;2.73;;;7.50;88.10;;;;;;5105043;28;20052;-91
2023/12/09 08:41:37;;;;;;;14.57;3.28;;;7.50;88.00;;;;;;5073429;28;20276;-86
2023/12/09 08:44:05;;;;;;;14.32;3.40;;;7.50;87.80;;;;;;5083381;28;20522;-84
2023/12/09 08:46:33;;;;;;;11.38;3.05;;;7.50;87.80;;;;;;5099727;28;20068;-85
2023/12/09 08:49:00;;;;;;;11.73;3.25;;;7.50;87.60;;;;;;5082792;28;20128;-85
2023/12/09 08:51:27;;;;;;;14.53;3.23;;;7.40;87.70;;;;;;5067220;28;20049;-86
2023/12/09 08:53:56;;;;;;;11.15;2.72;;;7.40;87.80;;;;;;5077906;28;21138;-88
2023/12/09 08:56:23;;;;;;;15.57;2.92;;;7.40;88.00;;;;;;5059225;28;20499;-92
2023/12/09 08:58:53;;;;;;;12.10;3.08;;;7.40;88.00;;;;;;5062532;28;20055;-92
2023/12/09 09:01:24;;;;;;;11.18;2.53;;;7.40;88.00;;;;;;5051576;28;20057;-91
2023/12/09 09:03:57;;;;;;;11.00;2.40;;;7.40;87.90;;;;;;5049776;28;20056;-92
2023/12/09 09:06:24;;;;;;;12.55;2.83;;;7.30;87.90;;;;;;5046731;28;20800;-85
2023/12/09 09:08:51;;;;;;;12.27;2.47;;;7.30;87.90;;;;;;5050879;28;20125;-84
2023/12/09 09:14:46;;;;;;;11.27;2.38;;;7.30;88.00;;;;;;5049589;28;20518;-85
2023/12/09 09:17:13;;;;;;;10.63;2.20;;;7.30;87.90;;;;;;5049593;28;20128;-84
2023/12/09 09:19:41;;;;;;;9.50;2.15;;;7.30;88.10;;;;;;5084578;28;20272;-89
2023/12/09 09:22:09;;;;;;;12.20;2.65;;;7.30;88.00;;;;;;5051597;28;20577;-88
2023/12/09 09:24:36;;;;;;;8.13;2.25;;;7.30;88.10;;;;;;5068588;28;20052;-88
2023/12/09 09:27:11;;;;;;;11.65;2.38;;;7.40;88.00;;;;;;5086839;28;20087;-93
2023/12/09 09:29:38;;;;;;;11.13;2.30;;;7.40;87.80;;;;;;5055099;28;20191;-90
2023/12/09 09:32:16;;;;;;;9.98;1.67;;;7.40;87.70;;;;;;5053941;28;20252;-92
2023/12/09 09:34:43;;;;;;;11.27;2.33;;;7.40;87.80;;;;;;5071395;28;20060;-90
2023/12/09 09:37:10;;;;;;;10.57;2.60;;;7.40;87.60;;;;;;5085848;28;20057;-90
2023/12/09 09:39:37;;;;;;;9.00;2.22;;;7.40;87.60;;;;;;5071306;28;20059;-90
2023/12/09 09:42:16;;;;;;;11.30;2.40;;;7.50;87.60;;;;;;5089587;28;20052;-91
2023/12/09 09:48:17;;;;;;;9.90;2.50;;;7.40;87.60;;;;;;5040975;28;20493;-84
2023/12/09 09:50:47;;;;;;;11.70;2.17;;;7.50;87.60;;;;;;5055619;28;20132;-85
2023/12/09 09:53:17;;;;;;;9.57;1.70;;;7.50;87.30;;;;;;5048717;28;20712;-85
2023/12/09 09:59:29;;;;;;;12.30;2.10;;;7.50;87.40;;;;;;5035525;28;20252;-88
2023/12/09 10:01:56;;;;;;;9.73;1.88;;;7.50;87.20;;;;;;5048428;28;20054;-85
2023/12/09 10:04:24;;;;;;;9.30;1.88;;;7.50;87.10;;;;;;5082301;28;20089;-86
2023/12/09 10:06:52;;;;;;;9.45;1.75;;;7.50;86.90;;;;;;5057440;28;20498;-86
2023/12/09 10:09:20;;;;;;;12.00;2.13;;;7.50;87.00;;;;;;5051063;28;20092;-86
2023/12/09 10:20:15;;;;;;;8.23;1.77;;;7.60;86.70;;;;;;4952723;28;20074;-88
2023/12/09 10:25:48;;;;;;;10.23;1.63;;;7.60;86.90;;;;;;5012744;28;20052;-86
2023/12/09 10:28:15;;;;;;;9.35;1.60;;;7.60;86.90;;;;;;5080334;28;20259;-86
2023/12/09 10:30:42;;;;;;;7.00;1.40;;;7.70;86.80;;;;;;5059013;28;20928;-87
2023/12/09 10:33:10;;;;;;;7.47;1.00;;;7.70;86.70;;;;;;5057266;28;20122;-85
2023/12/09 10:35:38;;;;;;;7.72;1.63;;;7.80;86.30;;;;;;5071598;28;20104;-85
2023/12/09 10:38:05;;;;;;;8.93;1.40;;;7.80;86.30;;;;;;5055725;28;20064;-87
2023/12/09 10:40:33;;;;;;;8.45;1.83;;;7.80;86.10;;;;;;5057603;28;20275;-87
2023/12/09 10:43:03;;;;;;;7.75;1.50;;;7.80;85.80;;;;;;5053205;28;20557;-85
2023/12/09 10:45:30;;;;;;;8.27;1.45;;;7.80;85.70;;;;;;5055625;28;20048;-86
2023/12/09 10:47:57;;;;;;;6.18;1.23;;;7.80;85.30;;;;;;5054345;28;20053;-83
2023/12/09 10:50:24;;;;;;;6.90;1.97;;;7.80;85.30;;;;;;5057294;28;20524;-84
2023/12/09 10:52:53;;;;;;;5.82;1.33;;;7.80;85.30;;;;;;5057418;28;20351;-87
2023/12/09 10:55:20;;;;;;;5.40;1.63;;;7.80;85.30;;;;;;5051982;28;20107;-86
2023/12/09 10:57:56;;;;;;;8.02;1.98;;;7.80;84.90;;;;;;5058568;28;20785;-87
2023/12/09 11:01:26;;;;;;;9.23;1.77;;;7.80;84.70;;;;;;5060686;28;20053;-91
2023/12/09 11:03:58;;;;;;;6.67;1.77;;;7.80;84.50;;;;;;5049143;28;20053;-83
2023/12/09 11:06:27;;;;;;;7.95;1.90;;;7.80;84.70;;;;;;5083990;28;20276;-79
2023/12/09 11:08:57;;;;;;;13.63;2.78;;;7.80;84.70;;;;;;5055787;28;20050;-78
2023/12/09 11:11:25;;;;;;;8.35;1.80;;;7.80;84.80;;;;;;5061294;28;20049;-81
2023/12/09 11:13:54;;;;;;;12.15;2.22;;;7.90;84.60;;;;;;5067250;28;20060;-82
2023/12/09 11:16:21;;;;;;;9.83;2.03;;;7.90;84.60;;;;;;5065671;28;20062;-83
2023/12/09 11:18:49;;;;;;;9.68;2.38;;;7.90;84.70;;;;;;5065715;28;20256;-83
2023/12/09 11:21:17;;;;;;;9.00;2.10;;;7.90;84.80;;;;;;5065990;28;20057;-81
2023/12/09 11:23:46;;;;;;;8.45;2.40;;;7.90;85.00;;;;;;5066416;28;20056;-84
2023/12/09 11:26:20;;;;;;;10.20;2.40;;;7.90;85.00;;;;;;5066625;28;20055;-85
2023/12/09 11:29:01;;;;;;;6.63;1.30;;;8.00;84.80;;;;;;5066801;28;20048;-83
2023/12/09 11:31:38;;;;;;;13.23;1.67;;;8.00;84.70;;;;;;5082826;28;20315;-85
2023/12/09 11:34:06;;;;;;;11.05;1.55;;;8.00;84.50;;;;;;5049217;28;20088;-85
2023/12/09 11:36:36;;;;;;;6.07;1.40;;;8.00;84.60;;;;;;5065705;28;20099;-84
2023/12/09 11:39:06;;;;;;;8.90;2.22;;;8.00;84.50;;;;;;5066109;28;20041;-83
2023/12/09 11:41:35;;;;;;;8.23;2.10;;;8.00;84.60;;;;;;5066455;28;20048;-84
2023/12/09 11:44:03;;;;;;;7.35;1.42;;;8.00;84.60;;;;;;5066349;28;20267;-83
2023/12/09 11:46:31;;;;;;;10.88;2.00;;;8.00;84.40;;;;;;5083071;28;20057;-79
2023/12/09 11:48:58;;;;;;;7.03;1.75;;;8.00;84.30;;;;;;5067053;28;20052;-79
2023/12/09 11:51:26;;;;;;;8.10;1.85;;;8.10;84.10;;;;;;5079887;28;20054;-79
2023/12/09 11:53:55;;;;;;;6.33;1.40;;;8.00;84.40;;;;;;5066259;28;20049;-79
2023/12/09 11:56:22;;;;;;;8.10;1.83;;;8.10;84.30;;;;;;5061727;28;20912;-80
2023/12/09 11:58:50;;;;;;;6.55;1.50;;;8.10;84.30;;;;;;5063980;28;20060;-82
2023/12/09 12:01:17;;;;;;;8.90;1.80;;;8.10;84.00;;;;;;5066216;28;20119;-80
2023/12/09 12:03:45;;;;;;;8.70;2.00;;;8.10;84.00;;;;;;5065045;28;20053;-79
2023/12/09 12:06:14;;;;;;;7.53;1.50;;;8.10;84.10;;;;;;5066062;28;20166;-80
2023/12/09 12:08:42;;;;;;;8.40;1.33;;;8.10;84.20;;;;;;5064786;28;21083;-81
2023/12/09 12:11:09;;;;;;;7.70;1.40;;;8.10;84.20;;;;;;5083478;28;20053;-81
2023/12/09 12:13:36;;;;;;;7.25;1.58;;;8.20;84.00;;;;;;5066653;28;20049;-80
2023/12/09 12:16:06;;;;;;;9.55;1.70;;;8.20;84.00;;;;;;5066279;28;20128;-83
2023/12/09 12:18:34;;;;;;;9.03;1.27;;;8.10;84.10;;;;;;5065882;28;20052;-81
2023/12/09 12:21:01;;;;;;;5.22;1.10;;;8.20;84.10;;;;;;5065955;28;20357;-81
2023/12/09 12:23:28;;;;;;;9.85;1.58;;;8.20;84.20;;;;;;5065042;28;20067;-82
2023/12/09 12:25:56;;;;;;;6.32;1.63;;;8.20;83.70;;;;;;5081289;28;20741;-82
2023/12/09 12:28:24;;;;;;;6.97;1.33;;;8.30;83.90;;;;;;5081369;28;20049;-81
2023/12/09 12:30:52;;;;;;;8.63;1.40;;;8.30;83.90;;;;;;5081472;28;21068;-82
2023/12/09 12:33:25;;;;;;;7.00;1.20;;;8.30;84.00;;;;;;5065103;28;20283;-83
2023/12/09 12:38:59;;;;;;;9.20;1.80;;;8.30;83.70;;;;;;5064939;28;20049;-82
2023/12/09 12:41:26;;;;;;;6.82;1.10;;;8.40;83.40;;;;;;5066915;28;20638;-81
2023/12/09 12:43:53;;;;;;;9.17;1.60;;;8.40;83.30;;;;;;5066119;28;20048;-81
2023/12/09 12:46:20;;;;;;;6.65;1.42;;;8.40;83.10;;;;;;5058513;28;20276;-81
2023/12/09 12:48:49;;;;;;;6.53;1.30;;;8.40;83.10;;;;;;5058725;28;20140;-83
2023/12/09 12:51:16;;;;;;;7.10;1.33;;;8.40;83.40;;;;;;5066180;28;20057;-82
2023/12/09 12:53:46;;;;;;;6.20;1.25;;;8.40;83.30;;;;;;5061604;28;20042;-82
2023/12/09 12:56:16;;;;;;;5.00;1.07;;;8.40;83.40;;;;;;5074647;28;20077;-80
2023/12/09 12:58:43;;;;;;;7.70;1.85;;;8.50;83.20;;;;;;5064677;28;20760;-81
2023/12/09 13:01:10;;;;;;;5.30;1.13;;;8.50;83.30;;;;;;5069552;28;20059;-82
2023/12/09 13:03:37;;;;;;;5.15;1.00;;;8.50;83.40;;;;;;5069381;28;20085;-79
2023/12/09 13:06:06;;;;;;;4.22;0.85;;;8.50;83.50;;;;;;5070556;28;20064;-82
2023/12/09 13:08:33;;;;;;;6.67;1.70;;;8.50;83.40;;;;;;5068918;28;20495;-79
2023/12/09 13:11:00;;;;;;;7.30;1.17;;;8.50;83.40;;;;;;5060271;28;20264;-80
2023/12/09 13:13:27;;;;;;;5.13;1.10;;;8.50;83.30;;;;;;5067656;28;20045;-80
2023/12/09 13:15:55;;;;;;;6.28;1.00;;;8.50;83.50;;;;;;5054751;28;20537;-80
2023/12/09 13:18:23;;;;;;;4.15;0.85;;;8.50;83.50;;;;;;5057210;28;20053;-80
2023/12/09 13:20:52;;;;;;;10.40;1.30;;;8.50;83.20;;;;;;5058122;28;20053;-80
2023/12/09 13:23:20;;;;;;;6.22;1.00;;;8.50;82.60;;;;;;5051389;28;20265;-79
2023/12/09 13:25:47;;;;;;;5.75;1.10;;;8.50;82.80;;;;;;5069704;28;20079;-79
2023/12/09 13:28:14;;;;;;;10.13;1.33;;;8.50;82.70;;;;;;5061882;28;20083;-80
2023/12/09 13:30:41;;;;;;;9.73;1.15;;;8.50;82.70;;;;;;5070950;28;20053;-80
2023/12/09 13:33:08;;;;;;;5.87;1.23;;;8.50;82.80;;;;;;5056615;28;20058;-79
2023/12/09 13:35:35;;;;;;;9.07;1.20;;;8.50;82.80;;;;;;5058562;28;20276;-80
2023/12/09 13:38:04;;;;;;;8.45;1.52;;;8.50;82.90;;;;;;5069659;28;20136;-80
2023/12/09 13:40:32;;;;;;;8.77;1.50;;;8.50;83.00;;;;;;5068459;28;20064;-80
2023/12/09 13:42:59;;;;;;;6.82;1.20;;;8.50;83.10;;;;;;5068212;28;20057;-80
2023/12/09 13:45:26;;;;;;;7.00;0.93;;;8.50;83.30;;;;;;5070498;28;20574;-80
2023/12/09 13:47:53;;;;;;;7.18;1.00;;;8.50;83.40;;;;;;5068345;28;20274;-80
2023/12/09 13:50:21;;;;;;;6.78;1.35;;;8.50;83.40;;;;;;5068793;28;20826;-80
2023/12/09 13:52:48;;;;;;;7.55;1.27;;;8.50;83.60;;;;;;5069336;28;20049;-81
2023/12/09 13:55:15;;;;;;;9.45;1.40;;;8.50;83.70;;;;;;5070151;28;20526;-81
2023/12/09 13:57:44;;;;;;;8.07;1.40;;;8.50;83.90;;;;;;5085256;28;20100;-83
2023/12/09 14:00:12;;;;;;;6.38;1.10;;;8.40;83.90;;;;;;5051332;28;20256;-81
2023/12/09 14:02:40;;;;;;;7.38;1.13;;;8.50;84.00;;;;;;5066141;28;20057;-81
2023/12/09 14:05:09;;;;;;;9.18;1.58;;;8.40;84.10;;;;;;5068247;28;20057;-81
2023/12/09 14:07:36;;;;;;;8.07;1.45;;;8.50;84.20;;;;;;5067003;28;20052;-81
2023/12/09 14:10:04;;;;;;;6.93;1.37;;;8.50;84.20;;;;;;5066989;28;20053;-82
2023/12/09 14:12:31;;;;;;;8.10;1.25;;;8.40;84.30;;;;;;5061083;28;20248;-83
2023/12/09 14:15:00;;;;;;;7.35;1.05;;;8.40;84.40;;;;;;5061239;28;20049;-81
2023/12/09 14:17:27;;;;;;;7.53;1.20;;;8.40;84.50;;;;;;5055657;28;20057;-81
2023/12/09 14:19:55;;;;;;;7.63;1.23;;;8.40;84.50;;;;;;5058061;28;20056;-81
2023/12/09 14:22:22;;;;;;;8.77;1.47;;;8.40;84.70;;;;;;5055512;28;20050;-82
2023/12/09 14:24:49;;;;;;;6.32;1.23;;;8.40;85.00;;;;;;5062193;28;20781;-82